createdAt,value
2018-02-03T00:00:28.336Z,1.54
2018-02-03T00:02:54.378Z,1.45
2018-02-03T00:05:20.420Z,1.67
2018-02-03T00:07:46.421Z,1.72
2018-02-03T00:10:12.457Z,1.77
2018-02-03T00:12:38.513Z,1.64
2018-02-03T00:15:04.591Z,1.71
2018-02-03T00:17:30.644Z,1.74
2018-02-03T00:19:56.724Z,1.73
2018-02-03T00:22:22.700Z,1.73
2018-02-03T00:24:48.700Z,1.69
2018-02-03T00:27:14.716Z,1.73
2018-02-03T00:29:40.745Z,1.58
2018-02-03T00:32:06.720Z,1.57
2018-02-03T00:34:32.756Z,1.52
2018-02-03T00:36:58.981Z,1.47
2018-02-03T00:39:25.008Z,1.45
2018-02-03T00:41:51.044Z,1.47
2018-02-03T00:44:17.108Z,1.51
2018-02-03T00:46:43.147Z,1.68
2018-02-03T00:49:09.219Z,1.78
2018-02-03T00:51:35.212Z,1.93
2018-02-03T00:54:01.237Z,1.95
2018-02-03T00:56:27.325Z,1.91
2018-02-03T00:58:53.321Z,1.90
2018-02-03T01:01:19.409Z,1.97
2018-02-03T01:03:45.379Z,1.93
2018-02-03T01:06:11.391Z,1.96
2018-02-03T01:08:37.392Z,1.92
2018-02-03T01:11:03.341Z,1.87
2018-02-03T01:13:29.361Z,1.86
2018-02-03T01:15:55.380Z,1.87
2018-02-03T01:18:21.396Z,1.88
2018-02-03T01:20:47.456Z,1.88
2018-02-03T01:23:13.445Z,1.91
2018-02-03T01:25:39.456Z,1.87
2018-02-03T01:28:05.473Z,1.95
2018-02-03T01:30:31.487Z,1.99
2018-02-03T01:32:57.473Z,1.96
2018-02-03T01:35:23.557Z,1.86
2018-02-03T01:37:49.545Z,1.91
2018-02-03T01:40:15.847Z,1.96
2018-02-03T01:42:41.968Z,2.00
2018-02-03T01:45:07.980Z,2.01
2018-02-03T01:47:46.200Z,1.98
2018-02-03T01:50:12.192Z,2.02
2018-02-03T01:52:38.225Z,2.05
2018-02-03T01:55:04.249Z,2.00
2018-02-03T01:57:30.216Z,2.00
2018-02-03T01:59:56.256Z,1.98
2018-02-03T02:02:22.272Z,1.93
2018-02-03T02:04:48.237Z,1.97
2018-02-03T02:07:14.243Z,1.95
2018-02-03T02:09:40.300Z,1.94
2018-02-03T02:12:06.339Z,1.93
2018-02-03T02:14:32.396Z,1.96
2018-02-03T02:16:58.511Z,1.96
2018-02-03T02:19:24.564Z,2.01
2018-02-03T02:21:50.575Z,1.99
2018-02-03T02:24:16.536Z,1.98
2018-02-03T02:26:42.582Z,1.99
2018-02-03T02:29:08.640Z,2.01
2018-02-03T02:31:34.608Z,2.06
2018-02-03T02:34:00.608Z,2.05
2018-02-03T02:36:26.724Z,2.03
2018-02-03T02:38:53.032Z,2.02
2018-02-03T02:41:18.993Z,1.85
2018-02-03T02:43:45.028Z,1.93
2018-02-03T02:46:11.025Z,2.00
2018-02-03T02:48:37.036Z,1.94
2018-02-03T02:51:03.129Z,1.97
2018-02-03T02:53:29.116Z,1.95
2018-02-03T02:55:55.148Z,1.96
2018-02-03T02:58:21.176Z,1.96
2018-02-03T03:00:47.257Z,1.97
2018-02-03T03:03:13.255Z,1.99
2018-02-03T03:05:39.249Z,1.94
2018-02-03T03:08:05.309Z,1.91
2018-02-03T03:10:31.368Z,1.85
2018-02-03T03:12:57.411Z,1.87
2018-02-03T03:15:23.427Z,1.87
2018-02-03T03:17:49.391Z,1.88
2018-02-03T03:20:15.446Z,1.89
2018-02-03T03:22:41.460Z,1.85
2018-02-03T03:25:07.468Z,1.95
2018-02-03T03:27:33.472Z,1.88
2018-02-03T03:29:59.496Z,1.88
2018-02-03T03:32:25.598Z,1.92
2018-02-03T03:34:51.625Z,1.76
2018-02-03T03:37:17.696Z,1.84
2018-02-03T03:39:43.740Z,1.82
2018-02-03T03:42:09.757Z,1.89
2018-02-03T03:44:35.740Z,1.90
2018-02-03T03:47:01.833Z,1.85
2018-02-03T03:49:27.817Z,1.76
2018-02-03T03:51:53.863Z,1.79
2018-02-03T03:54:19.879Z,1.75
2018-02-03T03:56:45.897Z,1.77
2018-02-03T03:59:11.904Z,1.79
2018-02-03T04:01:37.941Z,1.79
2018-02-03T04:04:03.969Z,1.77
2018-02-03T04:06:30.048Z,1.80
2018-02-03T04:08:56.063Z,1.74
2018-02-03T04:11:22.037Z,1.71
2018-02-03T04:13:48.097Z,1.66
2018-02-03T04:16:14.193Z,1.84
2018-02-03T04:18:40.243Z,1.81
2018-02-03T04:21:06.309Z,1.83
2018-02-03T04:23:32.312Z,1.90
2018-02-03T04:25:58.304Z,1.96
2018-02-03T04:28:24.352Z,1.98
2018-02-03T04:30:50.379Z,1.94
2018-02-03T04:33:16.424Z,1.83
2018-02-03T04:35:42.491Z,1.93
2018-02-03T04:38:08.486Z,1.95
2018-02-03T04:40:34.542Z,1.93
2018-02-03T04:43:00.624Z,1.98
2018-02-03T04:45:26.634Z,1.88
2018-02-03T04:47:52.637Z,1.89
2018-02-03T04:50:18.716Z,1.97
2018-02-03T04:52:44.721Z,1.93
2018-02-03T04:55:10.661Z,1.85
2018-02-03T04:57:36.680Z,1.82
2018-02-03T05:00:02.961Z,1.75
2018-02-03T05:02:28.968Z,1.72
2018-02-03T05:04:54.936Z,1.72
2018-02-03T05:07:20.973Z,1.69
2018-02-03T05:09:46.959Z,1.70
2018-02-03T05:12:12.974Z,1.72
2018-02-03T05:14:38.973Z,1.77
2018-02-03T05:17:04.964Z,1.73
2018-02-03T05:19:30.977Z,1.73
2018-02-03T05:21:56.996Z,1.73
2018-02-03T05:24:23.024Z,1.71
2018-02-03T05:26:49.104Z,1.65
2018-02-03T05:29:15.151Z,1.66
2018-02-03T05:31:41.160Z,1.70
2018-02-03T05:34:07.231Z,1.70
2018-02-03T05:36:33.308Z,1.66
2018-02-03T05:38:59.407Z,1.68
2018-02-03T05:41:25.391Z,1.70
2018-02-03T05:43:51.811Z,1.73
2018-02-03T05:46:17.820Z,1.74
2018-02-03T05:48:43.852Z,1.73
2018-02-03T05:51:09.877Z,1.75
2018-02-03T05:53:35.883Z,1.73
2018-02-03T05:56:01.944Z,1.75
2018-02-03T05:58:28.128Z,1.76
2018-02-03T06:00:54.184Z,1.78
2018-02-03T06:03:20.219Z,1.76
2018-02-03T06:05:46.240Z,1.74
2018-02-03T06:08:12.228Z,1.71
2018-02-03T06:10:38.241Z,1.60
2018-02-03T06:13:04.235Z,1.55
2018-02-03T06:15:30.245Z,1.66
2018-02-03T06:17:56.227Z,1.84
2018-02-03T06:20:22.232Z,1.76
2018-02-03T06:22:48.310Z,1.70
2018-02-03T06:25:14.272Z,1.45
2018-02-03T06:27:40.285Z,1.36
2018-02-03T06:30:06.273Z,1.36
2018-02-03T06:32:32.297Z,1.39
2018-02-03T06:34:58.319Z,1.36
2018-02-03T06:37:24.312Z,1.24
2018-02-03T06:39:50.376Z,1.25
2018-02-03T06:42:16.385Z,1.22
2018-02-03T06:44:42.432Z,1.20
2018-02-03T06:47:08.927Z,1.32
2018-02-03T06:49:34.947Z,1.47
2018-02-03T06:52:00.955Z,1.60
2018-02-03T06:54:27.352Z,1.71
2018-02-03T06:56:53.348Z,1.73
2018-02-03T06:59:19.357Z,1.58
2018-02-03T07:01:45.390Z,1.46
2018-02-03T07:04:11.423Z,1.54
2018-02-03T07:06:37.361Z,1.70
2018-02-03T07:09:03.380Z,1.70
2018-02-03T07:11:29.406Z,1.72
2018-02-03T07:13:55.417Z,1.50
2018-02-03T07:16:21.413Z,1.43
2018-02-03T07:18:47.488Z,1.37
2018-02-03T07:21:13.496Z,1.39
2018-02-03T07:23:39.508Z,1.38
2018-02-03T07:26:05.537Z,1.32
2018-02-03T07:28:31.548Z,1.35
2018-02-03T07:30:57.660Z,1.49
2018-02-03T07:33:23.657Z,1.63
2018-02-03T07:35:49.671Z,1.57
2018-02-03T07:38:15.677Z,1.66
2018-02-03T07:40:41.719Z,1.73
2018-02-03T07:43:07.680Z,1.80
2018-02-03T07:45:33.678Z,1.83
2018-02-03T07:47:59.707Z,1.76
2018-02-03T07:50:25.768Z,1.71
2018-02-03T07:52:51.861Z,1.70
2018-02-03T07:55:17.904Z,1.75
2018-02-03T07:57:43.905Z,1.71
2018-02-03T08:00:09.982Z,1.69
2018-02-03T08:02:35.973Z,1.68
2018-02-03T08:05:02.063Z,1.67
2018-02-03T08:07:28.085Z,1.65
2018-02-03T08:09:54.133Z,1.71
2018-02-03T08:12:20.097Z,1.63
2018-02-03T08:14:46.041Z,1.62
2018-02-03T08:17:12.012Z,1.59
2018-02-03T08:19:38.002Z,1.57
2018-02-03T08:22:04.060Z,1.55
2018-02-03T08:24:30.093Z,1.54
2018-02-03T08:26:56.111Z,1.49
2018-02-03T08:29:22.148Z,1.58
2018-02-03T08:31:48.275Z,1.63
2018-02-03T08:34:14.373Z,1.58
2018-02-03T08:36:40.377Z,1.52
2018-02-03T08:39:06.459Z,1.53
2018-02-03T08:41:32.482Z,1.55
2018-02-03T08:43:58.474Z,1.58
2018-02-03T08:46:24.527Z,1.62
2018-02-03T08:48:50.597Z,1.65
2018-02-03T08:51:16.644Z,1.65
2018-02-03T08:53:42.648Z,1.62
2018-02-03T08:56:08.736Z,1.65
2018-02-03T08:58:34.775Z,1.65
2018-02-03T09:01:00.785Z,1.69
2018-02-03T09:03:26.883Z,1.75
2018-02-03T09:05:52.952Z,1.82
2018-02-03T09:08:19.033Z,1.84
2018-02-03T09:10:45.030Z,1.71
2018-02-03T09:13:11.048Z,1.85
2018-02-03T09:15:37.028Z,1.82
2018-02-03T09:18:03.019Z,1.84
2018-02-03T09:20:29.064Z,1.99
2018-02-03T09:22:55.184Z,2.14
2018-02-03T09:25:21.202Z,2.21
2018-02-03T09:27:47.140Z,2.23
2018-02-03T09:30:13.220Z,2.33
2018-02-03T09:32:39.207Z,2.33
2018-02-03T09:35:05.288Z,2.34
2018-02-03T09:37:31.629Z,2.36
2018-02-03T09:39:57.656Z,2.35
2018-02-03T09:42:23.877Z,2.13
2018-02-03T09:44:50.110Z,2.12
2018-02-03T09:47:16.159Z,2.29
2018-02-03T09:49:42.148Z,2.38
2018-02-03T09:52:08.208Z,2.33
2018-02-03T09:54:34.404Z,2.35
2018-02-03T09:57:00.448Z,2.27
2018-02-03T09:59:26.457Z,2.22
2018-02-03T10:01:52.495Z,2.26
2018-02-03T10:04:18.510Z,2.32
2018-02-03T10:06:44.963Z,2.41
2018-02-03T10:09:10.945Z,2.42
2018-02-03T10:11:36.995Z,2.52
2018-02-03T10:14:03.024Z,2.52
2018-02-03T10:16:29.140Z,2.51
2018-02-03T10:18:55.179Z,2.58
2018-02-03T10:21:21.153Z,2.52
2018-02-03T10:23:47.153Z,2.52
2018-02-03T10:26:13.196Z,2.56
2018-02-03T10:28:39.199Z,2.52
2018-02-03T10:31:05.205Z,2.55
2018-02-03T10:33:31.238Z,2.63
2018-02-03T10:35:57.243Z,2.56
2018-02-03T10:38:23.619Z,2.64
2018-02-03T10:40:49.636Z,2.50
2018-02-03T10:43:15.609Z,2.65
2018-02-03T10:45:41.597Z,2.55
2018-02-03T10:48:07.639Z,2.62
2018-02-03T10:50:33.709Z,2.63
2018-02-03T10:52:59.802Z,2.68
2018-02-03T10:55:25.856Z,2.51
2018-02-03T10:57:52.217Z,2.55
2018-02-03T11:00:18.245Z,2.79
2018-02-03T11:02:44.393Z,3.02
2018-02-03T11:05:10.440Z,3.11
2018-02-03T11:07:36.457Z,3.03
2018-02-03T11:10:02.795Z,3.32
2018-02-03T11:12:28.817Z,3.56
2018-02-03T11:14:54.885Z,3.83
2018-02-03T11:17:21.923Z,3.25
2018-02-03T11:19:48.021Z,3.07
2018-02-03T11:22:14.054Z,3.44
2018-02-03T11:24:43.828Z,3.39
2018-02-03T11:27:11.294Z,3.44
2018-02-03T11:29:37.387Z,3.25
2018-02-03T11:32:03.462Z,3.13
2018-02-03T11:34:29.507Z,2.93
2018-02-03T11:36:55.634Z,2.72
2018-02-03T11:39:22.678Z,2.84
2018-02-03T11:41:49.002Z,2.85
2018-02-03T11:44:15.026Z,2.85
2018-02-03T11:46:41.036Z,3.07
2018-02-03T11:49:07.163Z,3.21
2018-02-03T11:51:33.204Z,3.21
2018-02-03T11:53:59.250Z,3.23
2018-02-03T11:56:25.317Z,3.20
2018-02-03T11:58:51.368Z,3.21
2018-02-03T12:01:17.555Z,3.23
2018-02-03T12:03:43.564Z,3.29
2018-02-03T12:06:09.629Z,3.06
2018-02-03T12:08:35.693Z,3.19
2018-02-03T12:11:01.735Z,3.38
2018-02-03T12:13:27.741Z,3.40
2018-02-03T12:15:53.789Z,3.26
2018-02-03T12:18:19.824Z,3.25
2018-02-03T12:20:45.927Z,3.33
2018-02-03T12:23:11.932Z,3.34
2018-02-03T12:25:37.987Z,3.35
2018-02-03T12:28:04.264Z,3.36
2018-02-03T12:30:31.186Z,3.37
2018-02-03T12:32:57.207Z,3.35
2018-02-03T12:35:23.238Z,3.16
2018-02-03T12:37:49.265Z,3.07
2018-02-03T12:40:15.313Z,3.06
2018-02-03T12:42:41.304Z,3.05
2018-02-03T12:45:07.382Z,2.94
2018-02-03T12:47:33.412Z,2.90
2018-02-03T12:49:59.431Z,2.82
2018-02-03T12:52:25.501Z,2.81
2018-02-03T12:54:51.577Z,2.89
2018-02-03T12:57:17.587Z,2.97
2018-02-03T12:59:43.580Z,2.90
2018-02-03T13:02:09.615Z,2.86
2018-02-03T13:04:35.695Z,2.89
2018-02-03T13:07:01.684Z,2.87
2018-02-03T13:09:27.724Z,2.89
2018-02-03T13:11:53.726Z,2.96
2018-02-03T13:14:19.761Z,3.02
2018-02-03T13:16:45.831Z,2.99
2018-02-03T13:19:11.858Z,2.95
2018-02-03T13:21:37.929Z,2.65
2018-02-03T13:24:03.932Z,2.62
2018-02-03T13:26:29.929Z,2.48
2018-02-03T13:28:55.911Z,2.41
2018-02-03T13:31:22.025Z,2.26
2018-02-03T13:33:48.768Z,2.20
2018-02-03T13:36:14.917Z,2.34
2018-02-03T13:38:40.918Z,2.45
2018-02-03T13:41:06.921Z,2.34
2018-02-03T13:43:32.949Z,2.35
2018-02-03T13:45:58.929Z,2.51
2018-02-03T13:48:24.976Z,2.59
2018-02-03T13:50:51.019Z,2.45
2018-02-03T13:53:17.031Z,2.47
2018-02-03T13:55:43.002Z,2.43
2018-02-03T13:58:09.035Z,2.42
2018-02-03T14:00:35.092Z,2.69
2018-02-03T14:03:01.096Z,2.56
2018-02-03T14:05:27.174Z,2.66
2018-02-03T14:07:53.277Z,2.75
2018-02-03T14:10:19.327Z,2.76
2018-02-03T14:12:45.916Z,2.66
2018-02-03T14:15:11.950Z,2.73
2018-02-03T14:17:38.064Z,2.59
2018-02-03T14:20:04.112Z,2.60
2018-02-03T14:22:30.125Z,2.65
2018-02-03T14:25:02.546Z,2.64
2018-02-03T14:27:28.593Z,2.60
2018-02-03T14:29:54.680Z,2.42
2018-02-03T14:32:20.740Z,2.45
2018-02-03T14:34:46.809Z,2.54
2018-02-03T14:37:12.828Z,2.41
2018-02-03T14:39:38.857Z,2.20
2018-02-03T14:42:04.901Z,2.19
2018-02-03T14:44:30.913Z,2.41
2018-02-03T14:46:56.907Z,2.27
2018-02-03T14:49:23.296Z,2.19
2018-02-03T14:51:49.446Z,2.03
2018-02-03T14:54:15.524Z,2.23
2018-02-03T14:56:41.456Z,2.33
2018-02-03T14:59:07.457Z,2.36
2018-02-03T15:01:33.404Z,2.45
2018-02-03T15:03:59.383Z,2.41
2018-02-03T15:06:25.423Z,2.34
2018-02-03T15:08:51.408Z,2.38
2018-02-03T15:11:17.447Z,2.30
2018-02-03T15:13:43.569Z,2.29
2018-02-03T15:16:09.607Z,2.22
2018-02-03T15:18:35.700Z,2.20
2018-02-03T15:21:01.717Z,2.17
2018-02-03T15:23:27.732Z,2.18
2018-02-03T15:25:53.765Z,2.12
2018-02-03T15:28:19.788Z,2.28
2018-02-03T15:30:45.799Z,2.29
2018-02-03T15:33:11.872Z,2.22
2018-02-03T15:35:38.189Z,2.14
2018-02-03T15:38:04.246Z,2.19
2018-02-03T15:40:30.230Z,2.05
2018-02-03T15:42:56.209Z,1.92
2018-02-03T15:45:22.227Z,1.80
2018-02-03T15:47:48.220Z,1.82
2018-02-03T15:50:14.284Z,1.82
2018-02-03T15:52:40.260Z,2.00
2018-02-03T15:55:06.309Z,1.87
2018-02-03T15:57:32.377Z,1.88
2018-02-03T15:59:58.320Z,2.08
2018-02-03T16:02:24.302Z,2.13
2018-02-03T16:04:50.397Z,2.10
2018-02-03T16:07:16.429Z,1.96
2018-02-03T16:09:42.516Z,2.01
2018-02-03T16:12:08.541Z,1.94
2018-02-03T16:14:34.552Z,1.64
2018-02-03T16:17:00.586Z,1.24
2018-02-03T16:19:26.612Z,0.86
2018-02-03T16:21:52.656Z,0.73
2018-02-03T16:24:18.698Z,0.50
2018-02-03T16:26:44.704Z,0.52
2018-02-03T16:29:10.791Z,0.43
2018-02-03T16:31:36.823Z,0.26
2018-02-03T16:34:02.832Z,0.31
2018-02-03T16:36:28.899Z,0.23
2018-02-03T16:38:54.863Z,0.34
2018-02-03T16:41:20.816Z,0.26
2018-02-03T16:43:46.875Z,0.18
2018-02-03T16:46:12.916Z,0.27
2018-02-03T16:48:38.933Z,0.26
2018-02-03T16:51:04.944Z,0.33
2018-02-03T16:53:30.917Z,0.31
2018-02-03T16:55:56.963Z,0.38
2018-02-03T16:58:23.052Z,0.45
2018-02-03T17:00:49.017Z,0.41
2018-02-03T17:03:15.044Z,0.59
2018-02-03T17:05:41.203Z,0.47
2018-02-03T17:08:07.216Z,0.25
2018-02-03T17:10:33.289Z,0.21
2018-02-03T17:12:59.320Z,0.17
2018-02-03T17:15:25.284Z,0.29
2018-02-03T17:17:51.352Z,0.31
2018-02-03T17:20:17.348Z,0.35
2018-02-03T17:22:43.582Z,0.42
2018-02-03T17:25:09.677Z,0.40
2018-02-03T17:27:35.764Z,0.43
2018-02-03T17:30:01.825Z,0.48
2018-02-03T17:32:27.812Z,0.40
2018-02-03T17:34:53.892Z,0.41
2018-02-03T17:37:25.878Z,0.52
2018-02-03T17:39:51.975Z,0.57
2018-02-03T17:42:17.950Z,0.81
2018-02-03T17:44:44.005Z,1.02
2018-02-03T17:47:10.055Z,1.09
2018-02-03T17:49:36.157Z,1.03
2018-02-03T17:52:02.261Z,1.11
2018-02-03T17:54:28.258Z,1.08
2018-02-03T17:57:00.244Z,1.17
2018-02-03T17:59:26.256Z,1.09
2018-02-03T18:01:52.331Z,1.06
2018-02-03T18:04:18.383Z,1.05
2018-02-03T18:06:50.620Z,1.03
2018-02-03T18:09:16.739Z,0.97
2018-02-03T18:11:42.780Z,0.93
2018-02-03T18:14:08.780Z,0.88
2018-02-03T18:16:35.068Z,0.99
2018-02-03T18:19:01.271Z,0.89
2018-02-03T18:21:27.551Z,0.68
2018-02-03T18:23:53.677Z,0.57
2018-02-03T18:26:20.116Z,0.48
2018-02-03T18:28:46.263Z,0.46
2018-02-03T18:31:12.909Z,0.39
2018-02-03T18:33:39.078Z,0.37
2018-02-03T18:36:05.310Z,0.36
2018-02-03T18:38:31.716Z,0.39
2018-02-03T18:40:57.909Z,0.37
2018-02-03T18:43:24.037Z,0.46
2018-02-03T18:45:50.135Z,0.60
2018-02-03T18:48:16.640Z,0.44
2018-02-03T18:50:42.915Z,0.56
2018-02-03T18:53:11.095Z,0.66
2018-02-03T18:55:37.752Z,0.57
2018-02-03T18:58:03.996Z,0.41
2018-02-03T19:00:30.920Z,0.18
2018-02-03T19:02:57.312Z,0.07
2018-02-03T19:05:23.709Z,-0.09
2018-02-03T19:07:50.170Z,-0.27
2018-02-03T19:10:17.396Z,-0.22
2018-02-03T19:12:43.851Z,-0.23
2018-02-03T19:15:11.464Z,-0.09
2018-02-03T19:17:39.854Z,0.16
2018-02-03T19:29:52.811Z,-0.42
2018-02-03T19:32:21.261Z,0.36
2018-02-03T19:47:26.036Z,-0.04
2018-02-03T19:49:52.113Z,0.02
2018-02-03T19:52:18.174Z,-0.12
2018-02-03T19:54:44.226Z,-0.23
2018-02-03T19:57:10.221Z,-0.25
2018-02-03T19:59:36.270Z,-0.57
2018-02-03T20:02:02.315Z,-0.78
2018-02-03T20:04:28.417Z,-0.52
2018-02-03T20:06:54.425Z,-0.45
2018-02-03T20:09:21.348Z,-0.39
2018-02-03T20:11:47.373Z,-0.51
2018-02-03T20:14:13.429Z,-0.75
2018-02-03T20:16:39.730Z,-0.80
2018-02-03T20:19:05.846Z,-0.80
2018-02-03T20:21:31.835Z,-0.76
2018-02-03T20:23:57.865Z,-0.63
2018-02-03T20:26:23.989Z,-0.68
2018-02-03T20:28:50.325Z,-0.73
2018-02-03T20:31:16.442Z,-0.78
2018-02-03T20:33:42.484Z,-0.70
2018-02-03T20:36:08.601Z,-0.77
2018-02-03T20:38:35.179Z,-0.97
2018-02-03T20:41:01.275Z,-0.90
2018-02-03T20:43:27.354Z,-0.91
2018-02-03T20:45:53.375Z,-0.89
2018-02-03T20:48:19.462Z,-0.92
2018-02-03T20:50:45.546Z,-1.02
2018-02-03T20:53:11.659Z,-1.24
2018-02-03T20:55:37.781Z,-1.28
2018-02-03T20:58:03.842Z,-1.22
2018-02-03T21:00:29.991Z,-1.14
2018-02-03T21:02:56.047Z,-1.10
2018-02-03T21:05:22.169Z,-1.01
2018-02-03T21:07:48.263Z,-1.01
2018-02-03T21:10:14.295Z,-1.08
2018-02-03T21:12:40.402Z,-0.98
2018-02-03T21:15:06.449Z,-1.01
2018-02-03T21:17:32.473Z,-1.08
2018-02-03T21:19:58.533Z,-1.02
2018-02-03T21:22:24.576Z,-0.98
2018-02-03T21:24:50.608Z,-0.95
2018-02-03T21:27:16.758Z,-1.01
2018-02-03T21:29:42.761Z,-0.97
2018-02-03T21:32:08.788Z,-0.96
2018-02-03T21:34:34.804Z,-0.98
2018-02-03T21:37:00.919Z,-1.00
2018-02-03T21:39:26.942Z,-1.24
2018-02-03T21:41:52.955Z,-1.18
2018-02-03T21:44:18.954Z,-1.16
2018-02-03T21:46:44.999Z,-1.16
2018-02-03T21:49:11.004Z,-1.11
2018-02-03T21:51:37.088Z,-1.06
2018-02-03T21:54:03.176Z,-1.13
2018-02-03T21:56:29.244Z,-1.34
2018-02-03T21:58:55.252Z,-1.50
2018-02-03T22:01:21.345Z,-1.50
2018-02-03T22:03:54.218Z,-1.49
2018-02-03T22:06:20.182Z,-1.44
2018-02-03T22:08:46.102Z,-1.43
2018-02-03T22:11:12.535Z,-1.42
2018-02-03T22:13:39.224Z,-1.43
2018-02-03T22:16:05.502Z,-1.65
2018-02-03T22:18:31.596Z,-1.81
2018-02-03T22:20:57.596Z,-2.03
2018-02-03T22:23:23.624Z,-1.81
2018-02-03T22:25:49.652Z,-1.79
2018-02-03T22:28:15.665Z,-1.68
2018-02-03T22:30:41.718Z,-1.65
2018-02-03T22:33:07.969Z,-1.65
2018-02-03T22:35:34.364Z,-1.65
2018-02-03T22:38:00.392Z,-1.41
2018-02-03T22:40:26.441Z,-1.30
2018-02-03T22:42:52.477Z,-1.38
2018-02-03T22:45:18.495Z,-1.48
2018-02-03T22:47:44.610Z,-1.51
2018-02-03T22:50:10.684Z,-1.55
2018-02-03T22:52:36.677Z,-1.47
2018-02-03T22:55:02.885Z,-1.55
2018-02-03T22:57:28.952Z,-1.64
2018-02-03T22:59:55.045Z,-1.68
2018-02-03T23:02:26.941Z,-1.79
2018-02-03T23:04:52.964Z,-1.73
2018-02-03T23:07:18.961Z,-1.76
2018-02-03T23:09:45.013Z,-1.99
2018-02-03T23:12:11.043Z,-2.24
2018-02-03T23:14:37.073Z,-2.33
2018-02-03T23:17:03.116Z,-2.35
2018-02-03T23:19:29.186Z,-2.20
2018-02-03T23:21:55.197Z,-2.09
2018-02-03T23:24:21.204Z,-2.00
2018-02-03T23:26:47.221Z,-1.95
2018-02-03T23:29:13.237Z,-1.97
2018-02-03T23:31:51.606Z,-1.94
2018-02-03T23:34:17.624Z,-1.89
2018-02-03T23:36:43.696Z,-1.90
2018-02-03T23:39:09.752Z,-2.09
2018-02-03T23:41:35.823Z,-2.20
2018-02-03T23:44:01.894Z,-2.19
2018-02-03T23:46:27.944Z,-2.11
2018-02-03T23:48:53.945Z,-2.12
2018-02-03T23:51:19.944Z,-2.28
2018-02-03T23:53:46.044Z,-2.17
2018-02-03T23:56:12.100Z,-2.08
2018-02-03T23:58:38.150Z,-2.03
